Home   Weather   Germany   Büdingen   Past weeks
Flag for Germany

Past Weather in Büdingen, Hesse, Germany — Yesterday and Last 2 Weeks

Currently: 72 °F. Passing clouds. (Weather station: Frankfurt-M-Flughafen Airport, Germany). See more current weather

Past Weather in Büdingen — Graph

°F

Büdingen Temperature Yesterday

Maximum temperature yesterday: 77 °F (at 11:50 am)
Minimum temperature yesterday: 59 °F (at 5:20 am)
Average temperature yesterday: 69 °F

High & Low Weather Summary for the Past Weeks

 TemperatureHumidityPressure
High84 °F (Jun 3, 3:50 pm)100% (Jun 5, 3:50 am)30.36 "Hg (Jun 5, 3:50 am)
Low45 °F (May 31, 4:20 am)26% (Jun 2, 7:20 pm)29.95 "Hg (Jun 1, 6:20 pm)
Average67 °F65%30.13 "Hg
* Reported May 29 8:20 pm — Jun 13 8:20 pm, Büdingen. Weather by CustomWeather, © 2021

Note: Actual official high and low records may vary slightly from our data, if they occured in-between our weather recording intervals... More about our weather records

Büdingen Weather History for the Previous 24 Hours

Scroll right to see more
 ConditionsComfort  
Time TempWeatherWind HumidityBarometerVisibility
8:20 pm
Sun, Jun 13
73 °FPassing clouds.5 mph38%30.27 "HgN/A
7:50 pm73 °FPassing clouds.7 mph41%30.27 "HgN/A
7:20 pm73 °FPassing clouds.7 mph41%30.27 "HgN/A
6:50 pm75 °FSunny.3 mph39%30.27 "Hg10 mi
6:20 pm75 °FPassing clouds.6 mph41%30.27 "HgN/A
5:50 pm75 °FPassing clouds.3 mph44%30.27 "HgN/A
5:20 pm75 °FSunny.5 mph41%30.27 "Hg10 mi
4:50 pm75 °FSunny.6 mph44%30.30 "Hg10 mi
4:20 pm73 °FSunny.8 mph44%30.30 "Hg10 mi
3:50 pm73 °FSunny.7 mph41%30.30 "Hg10 mi
3:20 pm73 °FSunny.7 mph41%30.30 "Hg10 mi
2:50 pm72 °FSunny.5 mph41%30.30 "Hg10 mi
2:20 pm72 °FSunny.5 mph41%30.33 "Hg10 mi
1:50 pm70 °FPassing clouds.5 mph43%30.33 "HgN/A
1:20 pm70 °FPassing clouds.6 mph50%30.33 "HgN/A
12:50 pm70 °FPassing clouds.5 mph50%30.33 "HgN/A
12:20 pm68 °FPassing clouds.5 mph53%30.33 "HgN/A
11:50 am66 °FPassing clouds.8 mph52%30.33 "HgN/A
11:20 am66 °FPassing clouds.3 mph52%30.33 "HgN/A
10:50 am64 °FPassing clouds.3 mph56%30.36 "HgN/A
10:20 am64 °FPassing clouds.6 mph56%30.33 "HgN/A
9:50 am63 °FPassing clouds.7 mph59%30.33 "HgN/A
9:20 am61 °FPassing clouds.8 mph63%30.33 "HgN/A
8:50 am61 °FPassing clouds.9 mph63%30.33 "HgN/A
8:20 am61 °FPassing clouds.8 mph63%30.33 "HgN/A
7:50 am61 °FPassing clouds.8 mph59%30.33 "HgN/A
7:20 am59 °FPassing clouds.5 mph68%30.30 "HgN/A
6:50 am59 °FSunny.5 mph72%30.30 "Hg10 mi
6:20 am57 °FPassing clouds.3 mph72%30.27 "HgN/A
5:50 am55 °FPassing clouds.6 mph77%30.27 "HgN/A
5:20 am54 °FSunny.7 mph82%30.27 "Hg10 mi
4:50 am55 °FPassing clouds.6 mph77%30.27 "HgN/A
4:20 am57 °FPassing clouds.8 mph72%30.24 "HgN/A
3:50 am57 °FPassing clouds.8 mph72%30.24 "HgN/A
3:20 am59 °FClear.7 mph68%30.27 "Hg10 mi
2:50 am59 °FPassing clouds.9 mph68%30.24 "HgN/A
2:20 am57 °FPassing clouds.7 mph72%30.24 "HgN/A
1:50 am57 °FClear.2 mph77%30.24 "Hg10 mi
1:20 am59 °FPassing clouds.8 mph72%30.24 "HgN/A
12:50 am63 °FPassing clouds.7 mph59%30.24 "HgN/A
12:20 am63 °FClear.9 mph59%30.21 "Hg10 mi
11:50 pm
Sat, Jun 12
63 °FClear.8 mph64%30.21 "Hg10 mi
11:20 pm63 °FClear.7 mph64%30.21 "Hg10 mi
10:50 pm64 °FPassing clouds.6 mph60%30.21 "HgN/A
10:20 pm68 °FClear.8 mph53%30.18 "Hg10 mi
9:50 pm68 °FPassing clouds.10 mph56%30.18 "HgN/A
9:20 pm68 °FPassing clouds.10 mph56%30.15 "HgN/A
Weather by CustomWeather, © 2021

See weather overview